Time;durP1;ratioP1;P1;durP2;ratioP2;P2;SDS_P1;SDS_P2;PMS_P1;PMS_P2;Temp;Humidity;BMP_temperature;BMP_pressure;BME280_temperature;BME280_humidity;BME280_pressure;Samples;Min_cycle;Max_cycle;Signal;HPM_P1;HPM_P2
2021/06/11 00:01:40;;;;;;;7.72;4.13;;;23.00;71.60;;;;;;5048318;28;20039;-87
2021/06/11 00:04:06;;;;;;;6.53;3.67;;;22.90;72.00;;;;;;5054427;28;20025;-87
2021/06/11 00:06:32;;;;;;;6.80;4.25;;;22.80;72.20;;;;;;5054170;28;20031;-87
2021/06/11 00:08:58;;;;;;;4.78;3.58;;;22.80;72.40;;;;;;5056555;28;20021;-86
2021/06/11 00:11:24;;;;;;;6.15;3.67;;;22.70;72.60;;;;;;5051092;28;20036;-87
2021/06/11 00:13:50;;;;;;;6.05;3.80;;;22.70;72.80;;;;;;5050771;28;20521;-87
2021/06/11 00:16:16;;;;;;;7.90;4.28;;;22.70;72.70;;;;;;5050805;28;20045;-87
2021/06/11 00:18:42;;;;;;;5.72;3.97;;;22.60;72.90;;;;;;5044724;28;20029;-87
2021/06/11 00:21:07;;;;;;;6.35;3.90;;;22.60;73.20;;;;;;5035176;28;20119;-87
2021/06/11 00:23:33;;;;;;;5.72;3.95;;;22.50;73.20;;;;;;5042572;28;20028;-87
2021/06/11 00:25:58;;;;;;;7.70;4.32;;;22.50;73.40;;;;;;5071917;28;20040;-86
2021/06/11 00:28:24;;;;;;;9.15;4.25;;;22.40;73.80;;;;;;5056662;28;20027;-87
2021/06/11 00:30:50;;;;;;;6.40;4.35;;;22.40;74.30;;;;;;5041688;28;20120;-87
2021/06/11 00:33:15;;;;;;;5.90;4.00;;;22.30;74.40;;;;;;5041323;28;20478;-87
2021/06/11 00:35:42;;;;;;;5.70;4.22;;;22.30;75.20;;;;;;5033162;28;20467;-87
2021/06/11 00:38:08;;;;;;;7.65;3.97;;;22.30;75.10;;;;;;5055832;28;20029;-87
2021/06/11 00:40:35;;;;;;;7.60;4.15;;;22.30;75.10;;;;;;5070784;28;20494;-87
2021/06/11 00:43:01;;;;;;;6.28;4.20;;;22.20;75.30;;;;;;5036913;28;20061;-86
2021/06/11 00:45:26;;;;;;;6.88;4.13;;;22.20;75.40;;;;;;5034120;28;20434;-87
2021/06/11 00:47:52;;;;;;;5.40;3.85;;;22.20;75.50;;;;;;5055528;28;20025;-86
2021/06/11 00:50:25;;;;;;;6.32;4.10;;;22.10;75.60;;;;;;5057587;28;20025;-86
2021/06/11 00:52:55;;;;;;;5.97;4.22;;;22.10;75.90;;;;;;5074424;28;20067;-87
2021/06/11 00:55:21;;;;;;;7.05;4.00;;;22.10;75.90;;;;;;5074637;28;20031;-87
2021/06/11 00:57:48;;;;;;;5.50;4.35;;;22.00;76.00;;;;;;5045069;28;20393;-87
2021/06/11 01:00:14;;;;;;;7.20;4.45;;;22.00;76.30;;;;;;5039833;28;20023;-87
2021/06/11 01:02:40;;;;;;;5.45;4.18;;;22.00;76.40;;;;;;5074298;28;20459;-87
2021/06/11 01:05:07;;;;;;;5.63;4.43;;;21.90;76.30;;;;;;5043564;28;20021;-87
2021/06/11 01:07:34;;;;;;;5.43;4.60;;;21.90;76.70;;;;;;5057239;28;20093;-87
2021/06/11 01:10:00;;;;;;;6.82;4.63;;;21.90;76.60;;;;;;5056543;28;20120;-87
2021/06/11 01:12:27;;;;;;;6.97;4.53;;;21.90;76.40;;;;;;5057619;28;20078;-87
2021/06/11 01:14:53;;;;;;;5.30;4.60;;;21.80;76.80;;;;;;5057518;28;20044;-87
2021/06/11 01:17:20;;;;;;;5.88;4.55;;;21.80;76.90;;;;;;5057248;28;20060;-88
2021/06/11 01:19:48;;;;;;;6.95;4.80;;;21.80;76.90;;;;;;5075335;28;20052;-87
2021/06/11 01:22:29;;;;;;;6.25;4.72;;;21.70;77.10;;;;;;5045608;28;20503;-87
2021/06/11 01:24:58;;;;;;;5.95;4.88;;;21.70;77.70;;;;;;5073927;28;20031;-87
2021/06/11 01:27:23;;;;;;;5.53;4.40;;;21.70;77.70;;;;;;5073609;28;20025;-87
2021/06/11 01:29:52;;;;;;;6.47;4.70;;;21.60;77.60;;;;;;5027303;23;20502;-87
2021/06/11 01:32:20;;;;;;;7.18;4.55;;;21.60;77.80;;;;;;5035755;28;20049;-88
2021/06/11 01:34:49;;;;;;;7.03;4.78;;;21.60;77.90;;;;;;5034826;28;20036;-88
2021/06/11 01:37:20;;;;;;;6.53;4.50;;;21.50;77.80;;;;;;5049897;28;20028;-88
2021/06/11 01:39:53;;;;;;;6.38;4.60;;;21.50;77.90;;;;;;5021648;28;20029;-88
2021/06/11 01:42:19;;;;;;;10.77;5.35;;;21.50;78.00;;;;;;5050172;28;20018;-87
2021/06/11 01:44:47;;;;;;;6.75;4.85;;;21.50;78.10;;;;;;5020212;28;20124;-88
2021/06/11 01:47:13;;;;;;;6.75;4.78;;;21.40;78.20;;;;;;5030822;28;20092;-87
2021/06/11 01:49:43;;;;;;;7.30;5.22;;;21.40;78.40;;;;;;5015608;28;20478;-88
2021/06/11 01:52:09;;;;;;;5.97;5.05;;;21.30;78.40;;;;;;5034201;28;20018;-88
2021/06/11 01:54:37;;;;;;;6.13;4.70;;;21.30;78.40;;;;;;5050657;28;20022;-88
2021/06/11 01:57:04;;;;;;;6.43;5.32;;;21.30;78.80;;;;;;5034217;28;20021;-88
2021/06/11 01:59:30;;;;;;;6.82;5.38;;;21.30;78.90;;;;;;5031674;28;20470;-89
2021/06/11 02:01:56;;;;;;;6.20;5.20;;;21.20;78.90;;;;;;5033859;28;20029;-89
2021/06/11 02:04:22;;;;;;;6.85;5.47;;;21.20;79.10;;;;;;5030435;28;20034;-89
2021/06/11 02:06:50;;;;;;;8.77;5.50;;;21.20;78.90;;;;;;5032882;28;20032;-89
2021/06/11 02:09:16;;;;;;;6.40;4.95;;;21.10;79.20;;;;;;5030453;28;20467;-88
2021/06/11 02:11:42;;;;;;;6.32;4.72;;;21.10;79.40;;;;;;5031019;28;20018;-89
2021/06/11 02:14:15;;;;;;;6.75;5.18;;;21.10;79.70;;;;;;5030359;28;20058;-88
2021/06/11 02:16:42;;;;;;;6.47;5.43;;;21.00;79.60;;;;;;5031298;28;20281;-89
2021/06/11 02:19:09;;;;;;;7.00;5.20;;;21.00;79.90;;;;;;5033389;28;20025;-89
2021/06/11 02:21:37;;;;;;;7.00;5.38;;;21.00;79.80;;;;;;5049093;28;20057;-89
2021/06/11 02:24:02;;;;;;;6.75;5.72;;;21.00;79.80;;;;;;5021184;28;20022;-88
2021/06/11 02:26:30;;;;;;;10.73;7.25;;;20.90;79.70;;;;;;5034953;28;20073;-87
2021/06/11 02:28:55;;;;;;;9.02;7.80;;;20.90;80.20;;;;;;5035011;28;20038;-89
2021/06/11 02:31:27;;;;;;;12.90;8.73;;;20.90;80.50;;;;;;5024843;28;20036;-89
2021/06/11 02:33:53;;;;;;;10.63;8.25;;;20.80;80.80;;;;;;5045742;28;20026;-88
2021/06/11 02:36:19;;;;;;;11.93;9.00;;;20.80;80.70;;;;;;5030282;28;20411;-89
2021/06/11 02:38:44;;;;;;;9.93;8.30;;;20.80;81.00;;;;;;4999137;28;20033;-89
2021/06/11 02:41:17;;;;;;;11.23;9.30;;;20.80;81.20;;;;;;5049687;28;20030;-89
2021/06/11 02:43:43;;;;;;;10.80;8.95;;;20.70;81.50;;;;;;5049646;28;20437;-89
2021/06/11 02:46:17;;;;;;;11.50;9.40;;;20.70;81.80;;;;;;5035490;28;20033;-89
2021/06/11 02:49:08;;;;;;;11.50;8.88;;;20.70;81.70;;;;;;5039197;28;20475;-89
2021/06/11 02:51:43;;;;;;;12.18;9.63;;;20.70;81.70;;;;;;5019356;28;20064;-90
2021/06/11 02:54:32;;;;;;;11.25;9.15;;;20.60;82.00;;;;;;5036495;28;20034;-89
2021/06/11 02:57:19;;;;;;;12.75;10.70;;;20.60;82.30;;;;;;5002684;28;20017;-89
2021/06/11 02:59:59;;;;;;;11.38;10.02;;;20.60;82.40;;;;;;5026657;28;20375;-89
2021/06/11 03:02:31;;;;;;;12.07;10.27;;;20.50;82.40;;;;;;5014182;28;20026;-89
2021/06/11 03:08:23;;;;;;;11.43;10.23;;;20.50;82.60;;;;;;5017747;28;20092;-89
2021/06/11 03:10:53;;;;;;;13.77;9.90;;;20.40;82.60;;;;;;5013827;28;20053;-89
2021/06/11 03:13:22;;;;;;;11.95;10.18;;;20.40;82.80;;;;;;5029436;28;20042;-89
2021/06/11 03:15:49;;;;;;;13.25;9.95;;;20.40;83.40;;;;;;5009510;28;20077;-89
2021/06/11 03:18:37;;;;;;;11.55;10.05;;;20.40;82.80;;;;;;5022691;28;20490;-89
2021/06/11 03:21:12;;;;;;;11.18;9.98;;;20.30;83.00;;;;;;5017442;28;20106;-88
2021/06/11 03:24:01;;;;;;;12.65;10.98;;;20.30;83.00;;;;;;5026755;28;20065;-87
2021/06/11 03:26:46;;;;;;;12.65;10.45;;;20.30;83.50;;;;;;5013235;28;20073;-87
2021/06/11 03:29:17;;;;;;;14.05;10.20;;;20.30;83.60;;;;;;5033629;28;20091;-88
2021/06/11 03:31:47;;;;;;;12.27;10.00;;;20.20;83.40;;;;;;5048388;28;20071;-88
2021/06/11 03:34:21;;;;;;;11.20;9.25;;;20.20;83.70;;;;;;5032919;28;20032;-87
2021/06/11 03:37:15;;;;;;;11.25;9.52;;;20.10;83.90;;;;;;5048005;28;20033;-87
2021/06/11 03:39:46;;;;;;;11.75;9.70;;;20.10;84.10;;;;;;5047643;28;20022;-87
2021/06/11 03:42:13;;;;;;;12.43;9.80;;;20.00;83.60;;;;;;5028377;28;20112;-87
2021/06/11 03:44:45;;;;;;;12.85;10.38;;;20.00;83.80;;;;;;5041716;28;20064;-87
2021/06/11 03:47:13;;;;;;;12.93;9.98;;;19.90;83.90;;;;;;5027927;28;20088;-87
2021/06/11 03:49:41;;;;;;;12.45;10.52;;;19.90;84.10;;;;;;5031093;28;20429;-87
2021/06/11 03:52:07;;;;;;;11.77;9.95;;;19.90;84.10;;;;;;5031344;28;20017;-87
2021/06/11 03:54:34;;;;;;;12.75;10.98;;;19.90;84.70;;;;;;5027716;28;20133;-87
2021/06/11 03:57:02;;;;;;;13.25;11.00;;;19.90;84.70;;;;;;5004873;28;20032;-87
2021/06/11 03:59:33;;;;;;;13.82;11.70;;;19.80;84.90;;;;;;5032399;28;20025;-87
2021/06/11 04:02:00;;;;;;;12.00;10.73;;;19.80;85.10;;;;;;5031260;28;20449;-87
2021/06/11 04:04:26;;;;;;;14.20;11.43;;;19.80;85.30;;;;;;5042758;28;20025;-87
2021/06/11 04:07:00;;;;;;;12.75;11.00;;;19.80;85.20;;;;;;5027796;28;20382;-88
2021/06/11 04:09:30;;;;;;;13.82;11.20;;;19.80;85.40;;;;;;5025210;28;20176;-87
2021/06/11 04:12:07;;;;;;;13.50;11.25;;;19.80;85.60;;;;;;5032026;28;20017;-87
2021/06/11 04:14:47;;;;;;;13.15;11.27;;;19.80;85.80;;;;;;5032891;28;20033;-89
2021/06/11 04:17:16;;;;;;;12.27;10.48;;;19.80;86.50;;;;;;5035793;28;20499;-88
2021/06/11 04:19:49;;;;;;;12.15;10.60;;;19.80;86.40;;;;;;5031623;28;20036;-88
2021/06/11 04:22:18;;;;;;;12.35;10.98;;;19.80;86.00;;;;;;5030218;28;20113;-87
2021/06/11 04:24:47;;;;;;;13.18;10.68;;;19.80;85.90;;;;;;5045647;28;20036;-89
2021/06/11 04:27:13;;;;;;;12.80;10.70;;;19.80;86.20;;;;;;5045644;28;20029;-88
2021/06/11 04:29:41;;;;;;;13.98;11.52;;;19.80;86.40;;;;;;5012139;28;20042;-87
2021/06/11 04:32:45;;;;;;;12.10;10.80;;;19.80;86.50;;;;;;5012020;28;20033;-88
2021/06/11 04:35:11;;;;;;;13.75;11.07;;;19.80;86.80;;;;;;5012567;28;20038;-84
2021/06/11 04:37:38;;;;;;;12.57;10.70;;;19.80;86.50;;;;;;4994400;28;20117;-85
2021/06/11 04:40:05;;;;;;;12.48;10.60;;;19.80;86.70;;;;;;5010554;28;20475;-84
2021/06/11 04:42:32;;;;;;;11.88;9.10;;;19.80;86.60;;;;;;5010692;28;20073;-84
2021/06/11 04:44:59;;;;;;;11.95;9.73;;;19.80;86.60;;;;;;5011227;28;20157;-84
2021/06/11 04:47:25;;;;;;;13.43;10.52;;;19.80;87.00;;;;;;5026993;28;20037;-84
2021/06/11 04:49:50;;;;;;;12.05;10.65;;;19.70;86.90;;;;;;5027229;28;20029;-84
2021/06/11 04:52:16;;;;;;;13.45;11.05;;;19.70;87.20;;;;;;5010670;28;20404;-84
2021/06/11 04:54:41;;;;;;;12.90;10.90;;;19.70;87.40;;;;;;4994325;28;20030;-84
2021/06/11 04:57:07;;;;;;;13.00;10.70;;;19.70;87.70;;;;;;5006303;28;20072;-85
2021/06/11 04:59:33;;;;;;;13.93;10.30;;;19.70;87.70;;;;;;5010608;28;20066;-85
2021/06/11 05:01:59;;;;;;;14.30;11.35;;;19.70;87.90;;;;;;4994341;28;20037;-84
2021/06/11 05:04:24;;;;;;;13.45;10.77;;;19.70;88.10;;;;;;5010480;28;20092;-84
2021/06/11 05:06:50;;;;;;;12.77;10.85;;;19.70;88.40;;;;;;4994209;28;20091;-84
2021/06/11 05:09:16;;;;;;;13.30;11.18;;;19.70;88.40;;;;;;5010559;28;20060;-84
2021/06/11 05:11:42;;;;;;;14.68;11.20;;;19.60;88.70;;;;;;5010514;28;20030;-84
2021/06/11 05:14:08;;;;;;;13.65;11.38;;;19.60;88.80;;;;;;5028822;28;20037;-84
2021/06/11 05:16:33;;;;;;;13.40;11.23;;;19.60;88.90;;;;;;5017877;28;20022;-84
2021/06/11 05:18:59;;;;;;;12.60;10.85;;;19.60;89.10;;;;;;5014188;28;20036;-85
2021/06/11 05:21:25;;;;;;;13.50;11.88;;;19.60;89.20;;;;;;5013923;28;20040;-85
2021/06/11 05:23:50;;;;;;;13.70;10.95;;;19.60;89.40;;;;;;5021895;28;20057;-84
2021/06/11 05:26:16;;;;;;;12.88;11.23;;;19.50;89.60;;;;;;4997428;28;20088;-86
2021/06/11 05:28:42;;;;;;;13.68;10.98;;;19.50;89.60;;;;;;5030292;28;20128;-84
2021/06/11 05:31:08;;;;;;;12.82;10.68;;;19.50;89.70;;;;;;5038902;28;20025;-84
2021/06/11 05:33:35;;;;;;;13.70;10.65;;;19.50;89.80;;;;;;5011985;28;20044;-85
2021/06/11 05:36:00;;;;;;;13.05;10.95;;;19.50;89.80;;;;;;5033390;28;20029;-84
2021/06/11 05:38:26;;;;;;;12.50;10.30;;;19.50;90.10;;;;;;5033327;28;20120;-84
2021/06/11 05:40:53;;;;;;;11.93;9.88;;;19.40;90.10;;;;;;5013454;28;20509;-85
2021/06/11 05:43:19;;;;;;;13.80;9.50;;;19.50;90.10;;;;;;5030181;28;20033;-84
2021/06/11 05:45:44;;;;;;;12.43;10.00;;;19.40;90.00;;;;;;5016839;28;20080;-85
2021/06/11 05:48:10;;;;;;;11.00;9.48;;;19.50;90.10;;;;;;5033020;28;20502;-84
2021/06/11 05:50:36;;;;;;;11.20;9.32;;;19.40;90.10;;;;;;5033310;28;20030;-85
2021/06/11 05:53:02;;;;;;;12.80;9.70;;;19.40;90.10;;;;;;5045738;28;20630;-85
2021/06/11 05:55:28;;;;;;;12.95;9.30;;;19.40;90.10;;;;;;5053044;28;20108;-84
2021/06/11 05:57:54;;;;;;;12.63;10.07;;;19.50;90.20;;;;;;5039262;28;20329;-84
2021/06/11 06:00:20;;;;;;;11.45;9.07;;;19.50;90.20;;;;;;5046306;28;20477;-84
2021/06/11 06:02:46;;;;;;;11.00;9.00;;;19.40;90.20;;;;;;5040944;28;20436;-84
2021/06/11 06:05:12;;;;;;;11.40;8.25;;;19.50;90.20;;;;;;5027676;28;20075;-84
2021/06/11 06:07:38;;;;;;;11.40;9.45;;;19.50;90.20;;;;;;5032768;28;20116;-84
2021/06/11 06:10:06;;;;;;;13.82;9.63;;;19.50;90.30;;;;;;5032797;28;20029;-84
2021/06/11 06:13:09;;;;;;;10.48;8.38;;;19.50;90.20;;;;;;5032629;28;20778;-84
2021/06/11 06:15:34;;;;;;;11.52;8.88;;;19.50;90.20;;;;;;5032423;28;20429;-84
2021/06/11 06:18:00;;;;;;;10.88;8.80;;;19.50;90.20;;;;;;5032622;28;20112;-84
2021/06/11 06:20:26;;;;;;;13.18;9.00;;;19.50;90.30;;;;;;5046458;28;20390;-84
2021/06/11 06:22:52;;;;;;;11.48;8.65;;;19.50;90.40;;;;;;5012767;28;20025;-84
2021/06/11 06:25:18;;;;;;;9.90;7.82;;;19.50;90.40;;;;;;5020338;28;20033;-84
2021/06/11 06:27:44;;;;;;;15.05;10.05;;;19.50;90.40;;;;;;5049618;28;20441;-85
2021/06/11 06:30:12;;;;;;;11.35;8.77;;;19.50;90.30;;;;;;5029470;28;20025;-84
2021/06/11 06:32:38;;;;;;;10.13;7.88;;;19.50;90.30;;;;;;5028251;28;20065;-84
2021/06/11 06:35:05;;;;;;;11.38;8.82;;;19.60;90.40;;;;;;5033124;28;20468;-85
2021/06/11 06:37:31;;;;;;;10.55;8.23;;;19.60;90.40;;;;;;5059548;28;20485;-84
2021/06/11 06:39:57;;;;;;;11.95;9.38;;;19.70;90.40;;;;;;5052078;28;20076;-87
2021/06/11 06:42:23;;;;;;;9.68;8.05;;;19.70;90.50;;;;;;5041094;28;20029;-87
2021/06/11 06:44:49;;;;;;;13.48;10.98;;;19.80;90.50;;;;;;5038247;28;20033;-86
2021/06/11 06:47:15;;;;;;;13.32;9.63;;;19.80;90.40;;;;;;5053509;28;20024;-87
2021/06/11 06:49:40;;;;;;;13.43;10.10;;;19.80;90.40;;;;;;5032470;28;20061;-87
2021/06/11 06:52:07;;;;;;;12.98;9.85;;;19.90;90.30;;;;;;5034597;28;20430;-86
2021/06/11 06:54:35;;;;;;;13.30;10.30;;;19.90;90.40;;;;;;5035480;28;20025;-87
2021/06/11 06:57:02;;;;;;;9.57;7.75;;;19.90;90.40;;;;;;5052076;28;20537;-87
2021/06/11 06:59:27;;;;;;;14.07;11.05;;;20.00;90.40;;;;;;5041609;28;20033;-86
2021/06/11 07:02:00;;;;;;;15.02;11.43;;;20.10;90.30;;;;;;5035292;28;20497;-86
2021/06/11 07:04:26;;;;;;;14.60;11.07;;;20.10;90.30;;;;;;5036150;28;20059;-87
2021/06/11 07:06:51;;;;;;;13.82;11.18;;;20.10;90.10;;;;;;5034949;28;20060;-87
2021/06/11 07:09:17;;;;;;;15.32;12.07;;;20.20;90.20;;;;;;5054796;28;20029;-87
2021/06/11 07:11:43;;;;;;;13.65;11.15;;;20.30;90.00;;;;;;5053012;28;20546;-87
2021/06/11 07:14:09;;;;;;;15.30;11.82;;;20.30;90.00;;;;;;5035173;28;20123;-87
2021/06/11 07:16:36;;;;;;;14.05;11.45;;;20.30;90.10;;;;;;5042133;28;20074;-87
2021/06/11 07:19:02;;;;;;;15.88;11.90;;;20.40;90.10;;;;;;5051456;28;20032;-86
2021/06/11 07:21:28;;;;;;;16.30;12.75;;;20.40;90.10;;;;;;5051667;28;20028;-87
2021/06/11 07:23:54;;;;;;;17.75;13.73;;;20.50;90.20;;;;;;5018483;28;20474;-86
2021/06/11 07:26:20;;;;;;;17.88;13.82;;;20.60;90.10;;;;;;5034754;28;20029;-87
2021/06/11 07:28:46;;;;;;;23.20;16.60;;;20.70;90.00;;;;;;5047656;23;20049;-87
2021/06/11 07:31:12;;;;;;;22.52;16.55;;;20.70;89.20;;;;;;5051346;28;20045;-87
2021/06/11 07:33:38;;;;;;;19.80;15.75;;;20.70;89.10;;;;;;5051174;28;20040;-87
2021/06/11 07:36:04;;;;;;;22.73;16.10;;;20.70;88.90;;;;;;5034365;28;20025;-87
2021/06/11 07:38:30;;;;;;;20.73;15.18;;;20.80;89.10;;;;;;5050311;28;20418;-86
2021/06/11 07:40:56;;;;;;;20.85;14.23;;;20.80;88.80;;;;;;5034677;28;20474;-86
2021/06/11 07:43:22;;;;;;;17.42;12.48;;;20.90;89.10;;;;;;5067894;28;20060;-87
2021/06/11 07:45:49;;;;;;;16.00;12.65;;;20.90;89.20;;;;;;5047795;28;20026;-86
2021/06/11 07:48:15;;;;;;;15.52;11.70;;;21.00;89.20;;;;;;5034534;28;20033;-87
2021/06/11 07:50:40;;;;;;;13.63;10.27;;;21.10;89.00;;;;;;5051277;28;20462;-86
2021/06/11 07:53:06;;;;;;;15.52;12.13;;;21.20;89.00;;;;;;5051138;28;20036;-87
2021/06/11 07:55:32;;;;;;;17.02;13.23;;;21.30;89.00;;;;;;5034341;28;20021;-86
2021/06/11 07:57:59;;;;;;;18.23;13.18;;;21.40;88.70;;;;;;5034429;28;20027;-86
2021/06/11 08:00:25;;;;;;;16.13;11.93;;;21.50;88.10;;;;;;5034520;28;20098;-87
2021/06/11 08:02:58;;;;;;;15.70;11.30;;;21.50;88.20;;;;;;5050854;28;20029;-86
2021/06/11 08:05:25;;;;;;;15.23;11.18;;;21.60;88.40;;;;;;5067466;28;20035;-85
2021/06/11 08:07:52;;;;;;;14.25;10.75;;;21.70;88.40;;;;;;5050909;28;20378;-87
2021/06/11 08:10:18;;;;;;;17.80;12.20;;;21.80;88.10;;;;;;5067793;28;20352;-87
2021/06/11 08:12:44;;;;;;;15.82;12.32;;;21.90;87.30;;;;;;5050774;28;20028;-87
2021/06/11 08:15:10;;;;;;;16.77;12.88;;;21.90;87.20;;;;;;5050816;28;20025;-87
2021/06/11 08:17:35;;;;;;;17.48;13.20;;;22.00;87.30;;;;;;5050589;28;20064;-87
2021/06/11 08:20:02;;;;;;;18.35;14.00;;;22.10;86.90;;;;;;5034467;28;20053;-86
2021/06/11 08:22:27;;;;;;;15.95;12.38;;;22.20;86.60;;;;;;5050858;28;20033;-87
2021/06/11 08:24:53;;;;;;;21.30;14.68;;;22.20;86.70;;;;;;5034077;28;20087;-87
2021/06/11 08:27:19;;;;;;;17.13;12.63;;;22.30;84.50;;;;;;5035932;28;20495;-87
2021/06/11 08:29:44;;;;;;;14.70;12.10;;;22.30;85.20;;;;;;5055117;28;20445;-87
2021/06/11 08:32:10;;;;;;;17.45;13.52;;;22.40;85.00;;;;;;5036705;28;20059;-87
2021/06/11 08:34:36;;;;;;;16.23;13.00;;;22.40;85.10;;;;;;5053024;28;20026;-87
2021/06/11 08:37:07;;;;;;;14.32;12.25;;;22.40;85.10;;;;;;5056955;28;20053;-87
2021/06/11 08:39:34;;;;;;;18.55;12.70;;;22.50;84.80;;;;;;5039312;28;20036;-87
2021/06/11 08:42:00;;;;;;;16.27;13.02;;;22.60;83.90;;;;;;5034880;28;20032;-87
2021/06/11 08:44:30;;;;;;;14.95;11.95;;;22.60;83.30;;;;;;5050531;28;20086;-87
2021/06/11 08:46:55;;;;;;;14.68;11.57;;;22.60;83.70;;;;;;5033631;28;20120;-87
2021/06/11 08:49:24;;;;;;;16.15;12.77;;;22.70;83.90;;;;;;5054486;28;20179;-87
2021/06/11 08:51:55;;;;;;;15.95;12.90;;;22.80;83.90;;;;;;5038025;28;20497;-87
2021/06/11 08:54:21;;;;;;;15.82;12.20;;;22.80;84.10;;;;;;5054617;28;20014;-88
2021/06/11 08:56:49;;;;;;;14.93;11.65;;;22.90;83.80;;;;;;5054357;28;20131;-87
2021/06/11 08:59:15;;;;;;;13.48;10.68;;;23.10;83.70;;;;;;5038040;28;20029;-87
2021/06/11 09:01:41;;;;;;;16.08;12.05;;;23.20;83.90;;;;;;5071022;28;20382;-87
2021/06/11 09:04:07;;;;;;;12.70;9.98;;;23.30;83.00;;;;;;5051079;28;20029;-87
2021/06/11 09:06:33;;;;;;;15.18;11.55;;;23.30;82.80;;;;;;5046219;28;20032;-87
2021/06/11 09:09:03;;;;;;;13.00;10.75;;;23.50;82.60;;;;;;5055321;28;20025;-87
2021/06/11 09:11:30;;;;;;;14.13;11.35;;;23.50;82.30;;;;;;5037868;28;20032;-87
2021/06/11 09:14:05;;;;;;;15.13;11.77;;;23.60;82.10;;;;;;5054316;28;20029;-87
2021/06/11 09:16:43;;;;;;;14.80;10.88;;;23.70;81.00;;;;;;5054003;28;20025;-87
2021/06/11 09:19:19;;;;;;;15.27;11.63;;;23.70;81.30;;;;;;5053756;28;20033;-87
2021/06/11 09:21:49;;;;;;;13.13;10.57;;;23.80;80.60;;;;;;5037377;28;20026;-87
2021/06/11 09:24:21;;;;;;;11.40;9.60;;;23.90;80.60;;;;;;5070382;28;20025;-87
2021/06/11 09:29:56;;;;;;;10.88;8.30;;;24.10;80.10;;;;;;5068334;28;20074;-87
2021/06/11 09:32:26;;;;;;;10.48;8.10;;;24.20;80.40;;;;;;5040463;28;20131;-86
2021/06/11 09:34:53;;;;;;;10.87;8.40;;;24.30;79.20;;;;;;5077245;28;20469;-87
2021/06/11 09:37:26;;;;;;;9.25;7.35;;;24.30;79.10;;;;;;5073632;28;20035;-87
2021/06/11 09:39:56;;;;;;;9.10;7.68;;;24.40;79.10;;;;;;5042886;28;20029;-86
2021/06/11 09:42:27;;;;;;;9.80;7.75;;;24.50;78.70;;;;;;5066264;28;20521;-87
2021/06/11 09:44:54;;;;;;;9.88;8.15;;;24.50;78.50;;;;;;5056927;28;20158;-87
2021/06/11 09:47:36;;;;;;;10.40;8.23;;;24.60;77.50;;;;;;5060296;28;20028;-87
2021/06/11 09:50:05;;;;;;;10.80;8.25;;;24.70;77.70;;;;;;5073008;28;20020;-87
2021/06/11 09:52:35;;;;;;;11.52;9.40;;;24.70;77.70;;;;;;5067883;28;20028;-87
2021/06/11 09:55:05;;;;;;;11.38;9.13;;;24.80;76.80;;;;;;5040271;28;20028;-86
2021/06/11 09:57:34;;;;;;;12.88;10.23;;;24.90;76.00;;;;;;5068788;28;20024;-86
2021/06/11 10:00:00;;;;;;;15.27;10.25;;;24.80;75.60;;;;;;5056390;28;20029;-86
2021/06/11 10:02:31;;;;;;;12.13;8.25;;;24.90;76.00;;;;;;5059151;28;20033;-86
2021/06/11 10:04:57;;;;;;;10.60;9.00;;;24.90;75.80;;;;;;5063406;28;20028;-86
2021/06/11 10:07:24;;;;;;;8.88;7.22;;;24.90;74.70;;;;;;5055915;28;20098;-86
2021/06/11 10:09:50;;;;;;;8.70;6.97;;;24.90;75.70;;;;;;5056335;28;20382;-86
2021/06/11 10:12:16;;;;;;;10.43;8.77;;;25.00;76.50;;;;;;5055985;28;20099;-86
2021/06/11 10:14:41;;;;;;;11.15;8.60;;;25.10;76.40;;;;;;5036126;28;20128;-86
2021/06/11 10:17:08;;;;;;;9.40;7.80;;;25.10;75.90;;;;;;5067546;28;20024;-86
2021/06/11 10:19:37;;;;;;;10.52;8.60;;;25.20;75.80;;;;;;5055017;28;20024;-86
2021/06/11 10:22:05;;;;;;;8.32;6.93;;;25.30;74.80;;;;;;5055710;28;20103;-86
2021/06/11 10:24:30;;;;;;;9.13;7.32;;;25.30;74.60;;;;;;5072854;28;20123;-87
2021/06/11 10:26:56;;;;;;;10.82;8.88;;;25.30;74.20;;;;;;5072230;28;20104;-86
2021/06/11 10:29:22;;;;;;;9.82;7.68;;;25.40;74.40;;;;;;5038802;28;20101;-85
2021/06/11 10:31:48;;;;;;;10.32;8.00;;;25.40;74.80;;;;;;5055699;28;20028;-86
2021/06/11 10:34:14;;;;;;;12.68;8.68;;;25.50;75.00;;;;;;5055713;28;20107;-87
2021/06/11 10:36:44;;;;;;;11.00;8.50;;;25.60;74.10;;;;;;5072510;28;20123;-87
2021/06/11 10:39:10;;;;;;;10.25;7.82;;;25.60;72.70;;;;;;5070172;28;20020;-87
2021/06/11 10:42:00;;;;;;;8.75;7.05;;;25.70;72.50;;;;;;5063663;28;20044;-87
2021/06/11 10:44:35;;;;;;;11.30;8.48;;;25.70;73.10;;;;;;5060297;28;20119;-87
2021/06/11 10:47:16;;;;;;;9.93;7.68;;;25.70;72.70;;;;;;5055369;28;20458;-87
2021/06/11 10:50:00;;;;;;;11.43;7.97;;;25.80;73.30;;;;;;5060369;28;20059;-86
2021/06/11 10:52:47;;;;;;;8.43;7.07;;;25.90;73.20;;;;;;5054916;28;20024;-86
2021/06/11 10:55:16;;;;;;;10.05;7.88;;;25.90;72.60;;;;;;5057780;28;20063;-87
2021/06/11 10:57:43;;;;;;;11.13;8.77;;;26.00;72.00;;;;;;5057548;28;20032;-87
2021/06/11 11:00:36;;;;;;;11.38;8.98;;;26.00;71.40;;;;;;5055359;28;20064;-87
2021/06/11 11:03:06;;;;;;;9.68;7.95;;;26.00;72.50;;;;;;5055389;28;20033;-86
2021/06/11 11:05:37;;;;;;;8.95;7.13;;;26.10;72.80;;;;;;5055060;28;20032;-86
2021/06/11 11:08:07;;;;;;;8.75;6.65;;;26.20;72.90;;;;;;5071301;28;20013;-87
2021/06/11 11:10:43;;;;;;;;;;;26.20;73.30;;;;;;5063826;28;20028;-86
2021/06/11 11:13:15;;;;;;;9.55;7.10;;;26.30;73.10;;;;;;5072856;28;19908;-86
2021/06/11 11:15:49;;;;;;;9.07;8.10;;;26.40;71.20;;;;;;5063409;28;20024;-86
2021/06/11 11:18:23;;;;;;;9.50;7.82;;;26.50;70.70;;;;;;5054697;28;20021;-87
2021/06/11 11:20:50;;;;;;;9.57;6.70;;;26.50;71.10;;;;;;5071403;28;20024;-87
2021/06/11 11:23:18;;;;;;;9.60;7.78;;;26.60;70.00;;;;;;5071501;28;20016;-87
2021/06/11 11:25:45;;;;;;;11.95;8.10;;;26.60;70.00;;;;;;5072752;28;20024;-86
2021/06/11 11:28:13;;;;;;;9.45;7.30;;;26.60;69.80;;;;;;5055360;28;20040;-86
2021/06/11 11:30:40;;;;;;;8.60;6.68;;;26.70;71.00;;;;;;5072348;28;20048;-86
2021/06/11 11:33:09;;;;;;;9.52;8.00;;;26.80;71.50;;;;;;5054524;28;20071;-86
2021/06/11 11:35:38;;;;;;;8.30;6.97;;;26.90;71.40;;;;;;5054900;28;20438;-86
2021/06/11 11:38:07;;;;;;;10.20;8.35;;;26.90;71.20;;;;;;5071200;28;20113;-87
2021/06/11 11:40:34;;;;;;;8.95;8.05;;;26.90;70.50;;;;;;5070916;28;20504;-86
2021/06/11 11:43:01;;;;;;;7.30;6.38;;;26.90;69.80;;;;;;5054525;28;20035;-87
2021/06/11 11:45:28;;;;;;;8.13;7.20;;;26.90;70.10;;;;;;5040289;28;20017;-86
2021/06/11 11:47:55;;;;;;;6.75;5.60;;;27.00;69.90;;;;;;5070761;28;20032;-87
2021/06/11 11:50:21;;;;;;;9.95;6.88;;;27.00;69.90;;;;;;5041641;28;20024;-86
2021/06/11 11:52:47;;;;;;;9.77;6.45;;;27.10;69.20;;;;;;5054290;28;20029;-86
2021/06/11 11:55:14;;;;;;;8.48;7.50;;;27.20;69.30;;;;;;5054364;28;20420;-86
2021/06/11 11:57:43;;;;;;;8.00;6.55;;;27.30;69.20;;;;;;5070711;28;20073;-86
2021/06/11 12:00:10;;;;;;;9.18;7.75;;;27.30;69.40;;;;;;5062089;28;20028;-86
2021/06/11 12:02:36;;;;;;;9.85;6.88;;;27.40;69.40;;;;;;5072297;28;20047;-87
2021/06/11 12:05:02;;;;;;;12.93;7.88;;;27.40;69.10;;;;;;5072140;28;20025;-87
2021/06/11 12:07:28;;;;;;;8.00;6.60;;;27.50;68.40;;;;;;5071875;28;20036;-86
2021/06/11 12:09:54;;;;;;;8.02;6.93;;;27.50;68.70;;;;;;5053918;28;20501;-86
2021/06/11 12:12:20;;;;;;;8.27;6.68;;;27.50;69.60;;;;;;5037280;28;20028;-86
2021/06/11 12:14:46;;;;;;;7.75;6.35;;;27.60;69.80;;;;;;5053963;28;20067;-86
2021/06/11 12:17:12;;;;;;;10.35;7.95;;;27.70;69.90;;;;;;5053790;28;20060;-86
2021/06/11 12:19:38;;;;;;;8.88;6.97;;;27.70;68.90;;;;;;5053741;28;20016;-86
2021/06/11 12:22:05;;;;;;;10.82;8.45;;;27.80;69.10;;;;;;5054329;28;20029;-86
2021/06/11 12:24:32;;;;;;;10.18;8.30;;;27.80;66.90;;;;;;5074498;28;20538;-86
2021/06/11 12:26:57;;;;;;;7.97;6.45;;;27.80;65.60;;;;;;5061640;28;20024;-86
2021/06/11 12:29:23;;;;;;;8.32;6.72;;;27.70;66.80;;;;;;5054469;28;20124;-86
2021/06/11 12:31:50;;;;;;;8.18;6.10;;;27.80;67.20;;;;;;5054346;28;20060;-86
2021/06/11 12:34:16;;;;;;;6.50;5.55;;;27.80;67.90;;;;;;5054504;28;20025;-86
2021/06/11 12:36:43;;;;;;;9.27;7.03;;;27.80;67.00;;;;;;5070994;28;20083;-87
2021/06/11 12:39:09;;;;;;;9.15;7.75;;;27.90;65.70;;;;;;5054521;28;20037;-86
2021/06/11 12:41:37;;;;;;;8.05;6.53;;;27.90;65.50;;;;;;5038015;28;20493;-86
2021/06/11 12:44:16;;;;;;;11.35;8.13;;;27.90;66.30;;;;;;5040492;28;20091;-86
2021/06/11 12:46:53;;;;;;;11.13;7.85;;;27.90;65.00;;;;;;5055612;28;20112;-86
2021/06/11 12:49:21;;;;;;;10.95;9.10;;;27.90;65.60;;;;;;5055836;28;20017;-86